Tiempo atmosférico en la estación meteorológica de Baza, Granada (801 m.)

Fecha
DESCASC
Temp. máxima en grados centígrados (hora)
DESCASC
Temp. mínima en grados centígrados (hora)
DESCASC
Temp. media en grados centígrados
DESCASC
Racha de viento máxima en m/sg (hora)
DESCASC
Velocidad máxima media en intervalos de 10 minutos(hora)
DESCASC
Precipitaciones diarias en mm
DESCASC
Precipitaciones de 00:00 a 06:00 en mm
DESCASC
Precipitaciones de 06:00 a 12:00 en mm
DESCASC
Precipitaciones de 12:00 a 18:00 en mm
DESCASC
Precipitaciones de 18:00 a 24:00 en mm
DESCASC
23-11-2017 19.6 (17:10) -2.5 (07:50) 8.6 4.17 (20:00) 3.33 (20:00) 0 0 0 0 0
22-11-2017 18.6 (16:10) -3.3 (08:10) 7.7 6.39 (15:50) 4.17 (15:30) 0 0 0 0 0
21-11-2017 19.9 (16:50) -2.7 (07:30) 8.6 3.89 (21:10) 3.06 (20:30) 0 0 0 0 0
20-11-2017 20.2 (16:00) -2.1 (08:10) 9.1 4.44 (16:10) 3.33 (16:40) 0 0 0 0 0
19-11-2017 21 (14:50) -1 (-00:0) 10 6.39 (17:30) 3.89 (17:30) 0 0 0 0 0
18-11-2017 20.5 (16:10) -1.6 (-00:0) 9.4 6.94 (17:50) 4.17 (16:30) 0 0 0 0 0
17-11-2017 19.8 (17:10) -2.4 (-00:0) 8.7 6.11 (19:20) 3.89 (19:10) 0 0 0 0 0
16-11-2017 18.2 (14:40) -3.5 (-00:0) 7.4 6.39 (15:20) 4.17 (15:30) 0 0 0 0 0
15-11-2017 16.9 (16:10) -3.9 (-00:0) 6.5 5.28 (15:30) 3.33 (15:30) 0 0 0 0 0
14-11-2017 15.3 (17:00) 0.8 (00:00) 8.1 11.39 (04:00) 7.22 (04:00) 0 0 0 0 0
13-11-2017 16.6 (13:30) 7.6 (00:00) 12.1 12.22 (14:00) 8.06 (13:50) 0 0 0 0 0
12-11-2017 19 (15:00) -1.3 (-00:0) 8.9 10.83 (14:30) 7.22 (16:50) 0 0 0 0 0
11-11-2017 16 (14:40) 0 (00:00) 8 11.67 (13:40) 7.78 (14:30) 0 0 0 0 0
10-11-2017 12.8 (14:20) 0.7 (00:00) 6.8 8.61 (15:30) 5.56 (15:30) 0 0 0 0 0
09-11-2017 14.4 (14:30) 0.3 (00:00) 7.3 7.5 (17:00) 5 (16:40) 0 0 0 0 0
08-11-2017 17.4 (15:50) -2.5 (-00:0) 7.4 8.33 (16:30) 5 (14:40) 0 0 0 0 0
07-11-2017 17.3 (15:00) 0.1 (00:00) 8.7 11.67 (15:30) 6.94 (15:30) 0 0 0 0 0
06-11-2017 14.7 (15:50) 2.2 (00:00) 8.4 10 (13:00) 6.11 (15:20) 0 0 0 0 0
05-11-2017 17.6 (15:00) 7.9 (00:00) 12.8 10.28 (11:10) 6.94 (11:10) 0 0 0 0 0
04-11-2017 17.3 (15:50) 7.2 (00:00) 12.2 9.17 (17:00) 5.83 (16:50) 3 0.6 2.4 0 0
03-11-2017 21.5 (14:40) 7.5 (00:00) 14.5 8.33 (22:40) 5.28 (23:00) 0 0 0 0 0
02-11-2017 22.4 (15:20) 6.3 (07:30) 14.3 8.06 (18:30) 4.17 (17:10) 0 0 0 0 0
01-11-2017 22.4 (15:10) 8.3 (00:00) 15.3 8.89 (14:30) 5.28 (14:30) 0 0 0 0 0
31-10-2017 23 (15:00) 8.8 (00:00) 15.9 7.5 (13:00) 4.17 (17:40) 0 0 0 0 0
30-10-2017 25 (16:10) 4.6 (00:00) 14.8 8.06 (19:30) 4.72 (19:30) 0 0 0 0 0
29-10-2017 23.6 (16:30) 5.8 (00:00) 14.7 6.11 (20:40) 3.89 (16:00) 0 0 0 0 0
28-10-2017 25.2 (16:30) 4.1 (00:00) 14.7 7.78 (18:20) 4.72 (18:10) 0 0 0 0 0
27-10-2017 30.5 (17:00) 3.4 (00:00) 17 5 (17:50) 3.61 (17:50) 0 0 0 0 0
26-10-2017 27.7 (16:20) 3.6 (00:00) 15.7 8.33 (15:40) 5 (18:00) 0 0 0 0 0

Gráficas

Temp. máximas Temp. mínimas Temp. medias Precipitaciones Rachas de viento máximas Velocidades máximas media en intervalos de 10 minutos

Datos horarios

Fecha y hora oficial Temperatura (ºC) Velocidad del viento (km/h) Dirección del viento Racha (km/h) Dirección de racha Precipitación (mm) Presión (hPa) Tendencia (hPa) Humedad (%)
2017-11-24 23:00:00 5.8 9 Sur 11 Sudeste 0 931.7 0.4 53
2017-11-24 22:00:00 7.6 8 Sudeste 14 Sudeste 0 931.5 0.7 46
2017-11-24 21:00:00 8.7 9 Sudeste 14 Sur 0 931.6 1.3 44
2017-11-24 20:00:00 11.5 9 Sur 14 Sudeste 0 931.3 1.2 35
2017-11-24 19:00:00 13.8 4 Sudoeste 10 Sur 0 930.8 0.7 33
2017-11-24 18:00:00 17.9 5 Sur 12 Oeste 0 930.3 -0.1 23
2017-11-24 17:00:00 21.2 10 Oeste 20 Oeste 0 930.1 -0.9 16
2017-11-24 16:00:00 21.6 10 Noroeste 16 Noroeste 0 930.1 -1.7 17
2017-11-24 15:00:00 19.4 2 Norte 7 Norte 0 930.4 -2.3 23
2017-11-24 14:00:00 19.8 3 Noroeste 9 Nordeste 0 931 -2.1 23
2017-11-24 13:00:00 19 3 Noroeste 8 Noroeste 0 931.8 -0.8 26
2017-11-24 12:00:00 15.1 2 Norte 6 Noroeste 0 932.7 0.4 31
2017-11-24 11:00:00 10.4 3 Noroeste 12 Norte 0 933.1 0.9 42
2017-11-24 10:00:00 7.3 3 Norte 6 Noroeste 0 932.6 0.7 57
2017-11-24 09:00:00 3.5 5 Sur 8 Sur 0 932.3 0.6 75
2017-11-24 08:00:00 1.8 3 Sudoeste 6 Sur 0 932.2 0.4 80
2017-11-24 07:00:00 1.4 3 Este 10 Sudeste 0 931.9 -0.1 81
2017-11-24 06:00:00 1 6 Sur 10 Sudeste 0 931.7 -0.1 81
2017-11-24 05:00:00 1.4 7 Sur 9 Sudeste 0 931.8 -0.2 79
2017-11-24 04:00:00 2.1 6 Sudeste 8 Sudeste 0 932 -0.2 77
2017-11-24 03:00:00 3.4 2 Este 5 Sudeste 0 931.8 -0.4 73
2017-11-24 02:00:00 4.4 2 Sur 8 Sudeste 0 932 -0.2 70
2017-11-24 01:00:00 4.9 7 Sur 9 Sudeste 0 932.2 0.3 67
2017-11-24 00:00:00 6.2 6 Sudoeste 8 Sudoeste 0 932.2 0.7 58
2017-11-23 23:00:00 7.4 3 Oeste 8 Oeste 0 932.2 1.2 54
2017-11-23 22:00:00 8 3 Sur 11 Sudeste 0 931.9 1.2 51
2017-11-23 21:00:00 9.6 7 Sudeste 14 Sudeste 0 931.5 1.3 42
2017-11-23 20:00:00 11 12 Sudeste 15 Sudeste 0 931 1.3 38
2017-11-23 19:00:00 11.4 9 Sur 15 Sudoeste 0 930.7 1 42
2017-11-23 18:00:00 16.3 8 Sudoeste 10 Sudoeste 0 930.2 0.2 30
2017-11-23 17:00:00 19.4 4 Norte 9 Norte 0 929.7 -0.6 25
2017-11-23 16:00:00 19.1 7 Norte 11 Norte 0 929.7 -1.1 22
2017-11-23 15:00:00 18.7 3 Nordeste 8 Norte 0 930 -1.2 22
2017-11-23 14:00:00 17.4 4 Noroeste 10 Noroeste 0 930.3 -1.1 22
2017-11-23 13:00:00 14.6 6 Norte 10 Norte 0 930.8 -0.4 28
2017-11-23 12:00:00 11.1 5 Noroeste 10 Norte 0 931.2 0.9 36
2017-11-23 11:00:00 9.2 4 Norte 9 Norte 0 931.4 1.7 42
2017-11-23 10:00:00 5 3 Oeste 9 Norte 0 931.2 1.9 53
2017-11-23 09:00:00 -0.7 2 Sudeste 12 Sudeste 0 930.3 1.7 78
2017-11-23 08:00:00 -2.4 7 Sur 8 Sur 0 929.7 1.3 86
2017-11-23 07:00:00 -2 0 Calma 5 Noroeste 0 929.3 1.1 82
2017-11-23 06:00:00 -1.8 5 Sur 10 Sudeste 0 928.6 0.6 84
2017-11-23 05:00:00 -1.7 7 Sur 9 Sur 0 928.4 0.6 83
2017-11-23 04:00:00 -1.2 2 Oeste 5 Sur 0 928.2 0.5 78
2017-11-23 03:00:00 -0.1 2 Sudeste 8 Sudeste 0 928 0.5 72
2017-11-23 02:00:00 1 3 Sudoeste 9 Sur 0 927.8 0.5 63
2017-11-23 01:00:00 1.5 6 Sur 12 Sudeste 0 927.7 0.8 61
2017-11-23 00:00:00 2.8 8 Sur 13 Sur 0 927.5 1 56
2017-11-22 23:00:00 3.2 8 Sur 13 Sudeste 0 927.3 1.1 57
2017-11-22 22:00:00 4.8 8 Sur 15 Sudeste 0 926.9 1.1 52
2017-11-22 21:00:00 6.1 11 Sudeste 15 Sudeste 0 926.5 1 49
2017-11-22 20:00:00 7.5 10 Sudeste 15 Sudeste 0 926.2 0.8 47
2017-11-22 19:00:00 10 10 Sur 12 Sudeste 0 925.8 0.3 42
2017-11-22 18:00:00 15.1 6 Sudoeste 18 Oeste 0 925.5 -0.2 28
2017-11-22 17:00:00 18.2 12 Oeste 21 Oeste 0 925.4 -0.8 23
2017-11-22 16:00:00 18.5 12 Oeste 23 Oeste 0 925.5 -1.5 22
2017-11-22 15:00:00 18.4 12 Oeste 22 Noroeste 0 925.7 -2.3 22
2017-11-22 14:00:00 17.4 4 Sudoeste 9 Nordeste 0 926.2 -2.1 27
2017-11-22 13:00:00 13.4 3 Norte 10 Nordeste 0 927 -1.1 33
2017-11-22 12:00:00 9.7 6 Norte 11 Norte 0 928 -0.1 44
2017-11-22 11:00:00 5.9 5 Noroeste 8 Nordeste 0 928.3 0.4 57
2017-11-22 10:00:00 2.7 3 Noroeste 7 Oeste 0 928.1 0.3 70
2017-11-22 09:00:00 -1.7 3 Sur 6 Sudeste 0 928.1 0.1 91
2017-11-22 08:00:00 -3.2 6 Sudeste 7 Sudeste 0 927.9 -0.3 88
2017-11-22 07:00:00 -2.5 2 Sur 8 Sudeste 0 927.8 -0.9 88
2017-11-22 06:00:00 -2.1 7 Sur 8 Sur 0 928 -1.1 86
2017-11-22 05:00:00 -1.3 6 Sur 7 Sur 0 928.2 -1.2 84
2017-11-22 04:00:00 -0.8 4 Sudeste 6 Oeste 0 928.7 -1.1 81
2017-11-22 03:00:00 0.2 3 Oeste 6 Sur 0 929.1 -0.9 79
2017-11-22 02:00:00 0.9 3 Sudoeste 9 Sudeste 0 929.4 -0.7 76
2017-11-22 01:00:00 1.6 6 Sur 14 Sudeste 0 929.8 -0.3 71
2017-11-22 00:00:00 3 7 Sur 10 Sur 0 930 -0.2 67
2017-11-21 23:00:00 4.1 6 Sur 11 Este 0 930.1 -0.2 71
2017-11-21 22:00:00 5.4 5 Este 14 Sur 0 930.1 0.2 58
2017-11-21 21:00:00 6.7 11 Sudeste 13 Sudeste 0 930.2 0.6 51
2017-11-21 20:00:00 7.7 10 Sudeste 12 Sudeste 0 930.3 0.8 50
2017-11-21 19:00:00 10.3 8 Sur 13 Sudeste 0 929.9 0.1 42
2017-11-21 18:00:00 16.3 3 Oeste 12 Noroeste 0 929.6 -0.6 28
2017-11-21 17:00:00 19.2 6 Noroeste 12 Noroeste 0 929.5 -1.4 17
2017-11-21 16:00:00 19.4 5 Noroeste 11 Noroeste 0 929.8 -2 19
2017-11-21 15:00:00 19.2 5 Noroeste 12 Noroeste 0 930.2 -2.6 22
2017-11-21 14:00:00 16.8 4 Nordeste 11 Norte 0 930.9 -2.4 28
2017-11-21 13:00:00 15.2 3 Norte 8 Norte 0 931.8 -1.4 31
2017-11-21 12:00:00 11.5 3 Norte 8 Norte 0 932.8 -0.4 41
2017-11-21 11:00:00 6.9 5 Norte 9 Norte 0 933.3 0.3 56
2017-11-21 10:00:00 2.9 4 Oeste 6 Oeste 0 933.2 0.2 70
2017-11-21 09:00:00 -1.4 4 Sudeste 6 Oeste 0 933.2 0.5 92
2017-11-21 08:00:00 -2.6 4 Sur 9 Sudeste 0 933 0.2 91
2017-11-21 07:00:00 -2 3 Sudoeste 9 Sur 0 933 0.1 90
2017-11-21 06:00:00 -2.1 6 Sudeste 9 Sudeste 0 932.7 -0.3 89
2017-11-21 05:00:00 -1.5 5 Sur 8 Sudeste 0 932.8 -0.2 87
2017-11-21 04:00:00 -0.3 4 Oeste 9 Sudeste 0 932.9 -0.1 81
2017-11-21 03:00:00 0 10 Sudeste 10 Sudeste 0 933 -0.3 81
2017-11-21 02:00:00 1.1 3 Sur 10 Sudeste 0 933 -0.1 77
2017-11-21 01:00:00 1.9 7 Sur 8 Sur 0 933 0.1 73
2017-11-21 00:00:00 3.6 4 Sur 6 Oeste 0 933.3 0.7 65
2017-11-20 23:00:00 5.5 4 Oeste 12 Sur 0 933.1 0.7 55
2017-11-20 22:00:00 7.1 9 Sur 14 Sudeste 0 932.9 1 44
2017-11-20 21:00:00 8.7 10 Sudeste 15 Sudeste 0 932.6 1.1 39
2017-11-20 20:00:00 9.5 11 Sudeste 16 Sudeste 0 932.4 0.8 37
2017-11-20 19:00:00 10.3 11 Sudeste 13 Sudeste 0 931.9 0.3 39
2017-11-20 18:00:00 17 7 Sudoeste 12 Oeste 0 931.5 -0.4 25
2017-11-20 17:00:00 20 8 Oeste 16 Oeste 0 931.6 -0.9 19
2017-11-20 16:00:00 20 9 Oeste 15 Noroeste 0 931.6 -1.7 18
2017-11-20 15:00:00 19.1 5 Norte 9 Noroeste 0 931.9 -2.2 27
2017-11-20 14:00:00 17.1 5 Norte 11 Norte 0 932.5 -1.7 33
2017-11-20 13:00:00 14.6 6 Norte 10 Norte 0 933.3 -0.7 41
2017-11-20 12:00:00 11.9 3 Norte 8 Noroeste 0 934.1 0.5 48
2017-11-20 11:00:00 7.4 3 Noroeste 7 Noroeste 0 934.2 0.7 65
2017-11-20 10:00:00 2.8 2 Sudoeste 5 Sudoeste 0 934 1 90
2017-11-20 09:00:00 -0.8 4 Sudeste 7 Sudeste 0 933.6 0.8 95
2017-11-20 08:00:00 -2 4 Sudeste 6 Sudeste 0 933.5 1.3 93
2017-11-20 07:00:00 -1.5 5 Sur 8 Sudeste 0 933 0.3 93
2017-11-20 06:00:00 -1.1 3 Sudoeste 9 Sudeste 0 932.8 0.2 92
2017-11-20 05:00:00 -0.8 6 Sur 6 Sur 0 932.2 -0.5 91
2017-11-20 04:00:00 0.3 4 Sur 8 Sudeste 0 932.7 -0.1 90
2017-11-20 03:00:00 1 5 Sudoeste 7 Sudeste 0 932.6 -0.4 89
2017-11-20 02:00:00 1.3 6 Sudeste 8 Sudeste 0 932.7 -0.1 85
2017-11-20 01:00:00 1.9 8 Sudeste 10 Sudeste 0 932.8 0.4 84
2017-11-20 00:00:00 2.9 9 Sudeste 10 Sudeste 0 933 1.2 77
2017-11-19 23:00:00 4.8 6 Sur 12 Sudeste 0 932.8 1.4 70
2017-11-19 22:00:00 6.8 9 Sudeste 12 Sudeste 0 932.4 1.5 78
2017-11-19 21:00:00 8.8 8 Sudeste 19 Sudeste 0 931.8 1.7 63
2017-11-19 20:00:00 9.9 12 Sudeste 16 Sudeste 0 931.4 1.6 68
2017-11-19 19:00:00 12.5 11 Sur 21 Sudeste 0 930.9 1.3 60
2017-11-19 18:00:00 14.9 13 Sudeste 23 Sudeste 0 930.1 0.6 50
2017-11-19 17:00:00 19.2 11 Sudeste 18 Sur 0 929.8 -0.3 33
2017-11-19 16:00:00 20.6 8 Sudeste 13 Sudeste 0 929.6 -1.2 25
2017-11-19 15:00:00 20.9 5 Sur 10 Sur 0 929.5 -2.1 23
2017-11-19 14:00:00 17.9 5 Norte 10 Norte 0 930.1 -1.8 32
2017-11-19 13:00:00 15.7 3 Noroeste 10 Noroeste 0 930.8 -1 38
2017-11-19 12:00:00 12 5 Noroeste 8 Noroeste 0 931.6 0.2 43
2017-11-19 11:00:00 7.1 2 Oeste 7 Oeste 0 931.9 1.1 59
2017-11-19 10:00:00 3.6 3 Norte 6 Norte 0 931.8 1.4 78
2017-11-19 09:00:00 0.3 3 Sudoeste 8 Sudeste 0 931.4 1.4 92
2017-11-19 08:00:00 -0.8 6 Sur 10 Sur 0 930.8 0.8 91
2017-11-19 07:00:00 -0.5 5 Sur 7 Sur 0 930.4 0.4 90
2017-11-19 06:00:00 -0.3 3 Sudoeste 10 Sur 0 930 -0.2 91
2017-11-19 05:00:00 0.2 3 Sur 9 Sur 0 930 -0.1 87
2017-11-19 04:00:00 0.5 4 Sudeste 9 Sudeste 0 930 -0.2 89
2017-11-19 03:00:00 0.9 7 Sudeste 8 Sudeste 0 930.2 -0.2 87
2017-11-19 02:00:00 1.9 3 Oeste 9 Sudeste 0 930.1 -0.1 82
2017-11-19 01:00:00 2.7 9 Sudeste 12 Sudeste 0 930.2 0.1 76
2017-11-19 00:00:00 3.7 9 Sudeste 12 Sudeste 0 930.4 0.6 78
2017-11-18 23:00:00 5.2 9 Sur 13 Sur 0 930.2 1 79
2017-11-18 22:00:00 6.8 6 Sudeste 10 Este 0 930.1 1.3 83
2017-11-18 21:00:00 8.9 6 Este 12 Sudeste 0 929.8 1.5 73
2017-11-18 20:00:00 11.1 9 Sur 20 Sudeste 0 929.2 1.3 64
2017-11-18 19:00:00 12.8 15 Sudeste 24 Sudeste 0 928.8 1.2 56
2017-11-18 18:00:00 14.9 13 Sur 25 Sur 0 928.3 0.6 44
2017-11-18 17:00:00 18.7 13 Sur 23 Sur 0 927.9 -0.5 30
2017-11-18 16:00:00 20.1 4 Noroeste 10 Norte 0 927.6 -1.5 22
2017-11-18 15:00:00 19.4 3 Norte 7 Noroeste 0 927.7 -2.2 22
2017-11-18 14:00:00 17 6 Norte 12 Norte 0 928.4 -1.9 26
2017-11-18 13:00:00 14.6 7 Norte 12 Norte 0 929.1 -1.3 41
2017-11-18 12:00:00 11.5 3 Noroeste 7 Noroeste 0 929.9 -0.3 48
2017-11-18 11:00:00 6.9 5 Norte 8 Noroeste 0 930.3 0.5 69
2017-11-18 10:00:00 3.7 0 Calma 5 Sur 0 930.4 0.9 91
2017-11-18 09:00:00 -0.3 2 Sur 5 Sur 0 930.2 0.9 95
2017-11-18 08:00:00 -1.6 5 Sur 6 Sur 0 929.8 0.5 93
2017-11-18 07:00:00 -1.2 3 Sudeste 5 Sudeste 0 929.5 -0.1 92
2017-11-18 06:00:00 -0.6 5 Sur 9 Sudeste 0 929.3 -0.4 92
2017-11-18 05:00:00 0.3 3 Sur 6 Sur 0 929.3 -0.5 90
2017-11-18 04:00:00 0.7 0 Calma 6 Sur 0 929.6 -0.5 90
2017-11-18 03:00:00 1.1 2 Sur 6 Sudoeste 0 929.7 -0.4 89
2017-11-18 02:00:00 2 3 Sudeste 11 Sudeste 0 929.8 -0.3 85
2017-11-18 01:00:00 2.9 9 Sudeste 11 Sudeste 0 930.1 0.3 81
2017-11-18 00:00:00 3.8 7 Sur 11 Sur 0 930.1 0.6 80
2017-11-17 23:00:00 5.2 9 Sur 13 Sudeste 0 930.1 0.8 84
2017-11-17 22:00:00 7.1 8 Sudeste 12 Sudeste 0 929.8 1 88
2017-11-17 21:00:00 8.8 5 Este 15 Sur 0 929.5 1.2 83
2017-11-17 20:00:00 10.8 11 Sudeste 22 Sur 0 929.3 1.4 79
2017-11-17 19:00:00 12.2 13 Sudeste 20 Sudeste 0 928.8 0.8 68
2017-11-17 18:00:00 15.9 7 Sur 11 Sur 0 928.3 0 36
2017-11-17 17:00:00 18.5 2 Norte 9 Nordeste 0 927.9 -1.1 25
2017-11-17 16:00:00 18 5 Norte 13 Norte 0 928 -1.7 29
2017-11-17 15:00:00 17.7 6 Noroeste 11 Oeste 0 928.3 -2.2 30
2017-11-17 14:00:00 16.2 6 Norte 10 Norte 0 929 -1.8 37
2017-11-17 13:00:00 14.2 4 Norte 8 Noroeste 0 929.7 -1.3 43
2017-11-17 12:00:00 11.3 3 Nordeste 8 Norte 0 930.5 0 52
2017-11-17 11:00:00 6.5 3 Sur 6 Sur 0 930.8 0.5 72
2017-11-17 10:00:00 2.2 3 Oeste 6 Noroeste 0 931 0.9 88
2017-11-17 09:00:00 -1.1 0 Calma 4 Sur 0 930.5 0.5 96
2017-11-17 08:00:00 -2.3 0 Calma 5 Sudeste 0 930.3 0.3 93
2017-11-17 07:00:00 -2 5 Sudoeste 7 Sur 0 930.1 0.1 93
2017-11-17 06:00:00 -1.2 0 Calma 6 Sudeste 0 930 -0.4 93
2017-11-17 05:00:00 -0.9 0 Calma 10 Sudeste 0 930 -0.4 93
2017-11-17 04:00:00 -0.7 7 Sudeste 9 Sudeste 0 930 -0.7 92
2017-11-17 03:00:00 0 3 Sudoeste 11 Sudeste 0 930.4 -0.5 92
2017-11-17 02:00:00 0.5 10 Sudeste 11 Sudeste 0 930.4 -0.1 88
2017-11-17 01:00:00 1.8 6 Sudeste 11 Sudeste 0 930.7 0.4 86
2017-11-17 00:00:00 3.3 8 Sudeste 10 Sur 0 930.9 1.1 90
2017-11-16 23:00:00 5.4 6 Sur 11 Sudeste 0 930.5 1.1 91
2017-11-16 22:00:00 7.2 7 Este 16 Sudeste 0 930.3 1.4 92
2017-11-16 21:00:00 8.8 12 Sudeste 19 Sudeste 0 929.8 1.5 88
2017-11-16 20:00:00 9.9 12 Sudeste 19 Sudeste 0 929.4 1.4 79
2017-11-16 19:00:00 10.9 10 Sur 16 Sur 0 928.9 0.9 55
2017-11-16 18:00:00 15.5 7 Oeste 14 Noroeste 0 928.3 0.2 27
2017-11-16 17:00:00 17.6 10 Noroeste 18 Oeste 0 928 -0.7 23
2017-11-16 16:00:00 17.8 12 Noroeste 23 Oeste 0 928 -1.3 22
2017-11-16 15:00:00 17.9 14 Oeste 22 Oeste 0 928.1 -2 19
2017-11-16 14:00:00 15.8 5 Noroeste 11 Noroeste 0 928.7 -1.7 28
2017-11-16 13:00:00 13.7 3 Norte 8 Norte 0 929.3 -1.1 32
2017-11-16 12:00:00 10.3 3 Noroeste 11 Norte 0 930.1 0 40
2017-11-16 11:00:00 6.1 5 Norte 12 Norte 0 930.4 0.9 53
2017-11-16 10:00:00 2.2 2 Norte 5 Noroeste 0 930.4 1.1 68
2017-11-16 09:00:00 -1.6 0 Calma 9 Sudeste 0 930.1 1.2 92
2017-11-16 08:00:00 -3.5 8 Sudeste 10 Sudeste 0 929.5 0.8 90
2017-11-16 07:00:00 -3 0 Calma 4 Sur 0 929.3 0.5 88
2017-11-16 06:00:00 -2.5 4 Sur 10 Sudeste 0 928.9 -0.2 88
2017-11-16 05:00:00 -2.3 8 Sur 9 Sur 0 928.7 -0.4 86
2017-11-16 04:00:00 -1.1 4 Oeste 8 Oeste 0 928.8 -0.5 82
2017-11-16 03:00:00 -1.4 6 Sudeste 8 Sudeste 0 929.1 -0.1 85
2017-11-16 02:00:00 -0.6 3 Sudoeste 8 Sudeste 0 929.1 -0.2 82
2017-11-16 01:00:00 0.2 3 Sur 6 Sudeste 0 929.3 0.2 79
2017-11-16 00:00:00 0.7 6 Sur 10 Sudeste 0 929.2 0.4 77
2017-11-15 23:00:00 2.3 3 Sudoeste 8 Sudeste 0 929.3 0.8 71
2017-11-15 22:00:00 3.6 6 Sur 12 Sudeste 0 929.1 0.9 63
2017-11-15 21:00:00 5.2 6 Sur 11 Sudeste 0 928.8 1.2 57
2017-11-15 20:00:00 7.1 9 Sur 13 Sudeste 0 928.5 1.1 50
2017-11-15 19:00:00 11.6 8 Sudoeste 13 Sudoeste 0 928.2 0.8 37
2017-11-15 18:00:00 14.3 6 Oeste 18 Noroeste 0 927.6 -0.2 29
2017-11-15 17:00:00 16.4 10 Noroeste 17 Noroeste 0 927.4 -0.9 26
2017-11-15 16:00:00 16.7 8 Noroeste 19 Oeste 0 927.4 -1.8 22
2017-11-15 15:00:00 16.6 7 Oeste 13 Oeste 0 927.8 -2.4 18
2017-11-15 14:00:00 14.9 4 Sudoeste 10 Noroeste 0 928.3 -2.3 32
2017-11-15 13:00:00 12.6 4 Noroeste 10 Noroeste 0 929.2 -1.7 43
2017-11-15 12:00:00 9.3 5 Oeste 10 Noroeste 0 930.2 -0.6 46
2017-11-15 11:00:00 5.3 3 Oeste 8 Oeste 0 930.6 0.4 52
2017-11-15 10:00:00 1 2 Sur 8 Oeste 0 930.9 1.3 68
2017-11-15 09:00:00 -2 0 Calma 8 Este 0 930.8 1.1 82
2017-11-15 08:00:00 -3.5 6 Sur 8 Sudeste 0 930.2 0.7 88
2017-11-15 07:00:00 -3.4 4 Sur 9 Sudeste 0 929.6 0 86
2017-11-15 06:00:00 -2.6 4 Sur 7 Sudeste 0 929.7 -0.1 85
2017-11-15 05:00:00 -1.9 3 Sur 9 Sudeste 0 929.5 -0.2 85
2017-11-15 04:00:00 -1.4 8 Sudeste 10 Sur 0 929.6 -0.2 85
2017-11-15 03:00:00 -0.3 5 Sudoeste 8 Sudeste 0 929.8 0.1 81
2017-11-15 02:00:00 0.1 8 Sur 9 Sur 0 929.7 0.2 80
2017-11-15 01:00:00 1.5 4 Nordeste 14 Sudeste 0 929.8 0.7 73
2017-11-15 00:00:00 1.4 11 Sudeste 15 Sudeste 0 929.7 1.3 74
2017-11-14 23:00:00 2 3 Sur 10 Sur 0 929.5 1.4 69
2017-11-14 22:00:00 3.7 8 Sur 16 Sudeste 0 929.1 1.6 63
2017-11-14 21:00:00 4.8 6 Este 14 Sur 0 928.4 1.7 56
2017-11-14 20:00:00 5.8 8 Sur 11 Sudeste 0 928.1 1.7 53
2017-11-14 19:00:00 8.5 7 Sur 14 Oeste 0 927.5 1.4 42
2017-11-14 18:00:00 11.8 9 Oeste 13 Oeste 0 926.7 0.5 29
2017-11-14 17:00:00 15 4 Noroeste 11 Norte 0 926.4 -0.4 21
2017-11-14 16:00:00 14.8 3 Nordeste 11 Oeste 0 926.1 -1.4 20
2017-11-14 15:00:00 14 7 Noroeste 15 Noroeste 0 926.2 -1.7 21
2017-11-14 14:00:00 12.3 6 Nordeste 16 Noroeste 0 926.8 -1.4 27
2017-11-14 13:00:00 10.3 9 Norte 18 Noroeste 0 927.5 -0.8 32
2017-11-14 12:00:00 8.4 7 Noroeste 13 Noroeste 0 927.9 -0.2 40
2017-11-14 11:00:00 5.6 4 Sudoeste 13 Norte 0 928.2 0.7 48
2017-11-14 10:00:00 3.5 5 Norte 10 Norte 0 928.3 1.3 53
2017-11-14 09:00:00 2.2 4 Nordeste 12 Norte 0 928.1 1.5 58
2017-11-14 08:00:00 1.2 8 Noroeste 24 Oeste 0 927.5 1.5 61
2017-11-14 07:00:00 2.8 10 Oeste 26 Noroeste 0 927 0.8 52
2017-11-14 06:00:00 3.9 22 Oeste 32 Oeste 0 926.6 -0.1 47
2017-11-14 05:00:00 5.6 21 Oeste 38 Oeste 0 926 -0.6 43
2017-11-14 04:00:00 6.1 26 Oeste 41 Oeste 0 926.2 -0.6 46
2017-11-14 03:00:00 6.8 14 Oeste 34 Oeste 0 926.7 -0.5 45
2017-11-14 02:00:00 7.1 17 Oeste 29 Oeste 0 926.6 -0.7 46
2017-11-14 01:00:00 7.6 16 Oeste 26 Oeste 0 926.8 -0.4 46
2017-11-14 00:00:00 8 14 Oeste 26 Oeste 0 927.2 0.1 45
2017-11-13 23:00:00 8.3 11 Oeste 23 Oeste 0 927.3 0.5 44
2017-11-13 22:00:00 9.1 14 Oeste 22 Sudoeste 0 927.2 0.7 41
2017-11-13 21:00:00 9.9 13 Oeste 23 Oeste 0 927.1 1.4 39
2017-11-13 20:00:00 10.4 13 Oeste 22 Oeste 0 926.8 1.4 39
2017-11-13 19:00:00 11.7 15 Oeste 29 Oeste 0 926.5 1.3 39
2017-11-13 18:00:00 12.9 17 Oeste 41 Oeste 0 925.7 0.3 38
2017-11-13 17:00:00 15.1 26 Oeste 41 Oeste 0 925.4 -0.4 32
2017-11-13 16:00:00 15.8 24 Oeste 43 Oeste 0 925.2 -1.3 37
2017-11-13 15:00:00 16.1 24 Oeste 42 Oeste 0 925.4 -1.8 37
2017-11-13 14:00:00 16.4 28 Oeste 44 Oeste 0 925.8 -1.7 32
2017-11-13 13:00:00 16.2 21 Oeste 37 Oeste 0 926.5 -1.3 33
2017-11-13 12:00:00 15.3 18 Oeste 32 Oeste 0 927.2 -0.8 39
2017-11-13 11:00:00 13.7 18 Oeste 31 Oeste 0 927.5 0.4 43
2017-11-13 10:00:00 12.5 13 Noroeste 27 Oeste 0 927.8 0.6 47
2017-11-13 09:00:00 9.7 12 Noroeste 40 Noroeste 0 928 0.8 55
2017-11-13 08:00:00 9.8 18 Oeste 30 Oeste 0 927.1 -0.1 52
2017-11-13 07:00:00 7.9 5 Norte 24 Oeste 0 927.2 -0.4 60
2017-11-13 06:00:00 9.1 16 Oeste 25 Oeste 0 927.2 -0.9 54
2017-11-13 05:00:00 8.9 10 Noroeste 20 Noroeste 0 927.2 -1.2 55
2017-11-13 04:00:00 9.3 8 Noroeste 20 Sudoeste 0 927.6 -1.2 52
2017-11-13 03:00:00 9.8 4 Sudoeste 20 Norte 0 928.1 -1.2 49
2017-11-13 02:00:00 11.2 13 Noroeste 27 Oeste 0 928.4 -0.9 46
2017-11-13 01:00:00 9.7 3 Sudeste 22 Noroeste 0 928.8 -0.5 51
2017-11-13 00:00:00 10.7 9 Noroeste 22 Oeste 0 929.3 -0.1 47
2017-11-12 23:00:00 12.3 13 Oeste 24 Oeste 0 929.3 -0.1 42
2017-11-12 22:00:00 11.6 6 Oeste 19 Oeste 0 929.3 0.2 45
2017-11-12 21:00:00 13 14 Oeste 25 Oeste 0 929.4 0.9 41
2017-11-12 20:00:00 13.1 14 Oeste 26 Oeste 0 929.4 1.2 41
2017-11-12 19:00:00 13.9 15 Oeste 30 Oeste 0 929.1 0.7 40
2017-11-12 18:00:00 15.1 18 Oeste 37 Oeste 0 928.5 -0.5 36
2017-11-12 17:00:00 17.3 23 Oeste 37 Oeste 0 928.2 -1.5 26
2017-11-12 16:00:00 18.9 20 Oeste 37 Oeste 0 928.4 -1.8 20
2017-11-12 15:00:00 18.8 17 Oeste 39 Oeste 0 929 -2.4 25
2017-11-12 14:00:00 17.7 23 Oeste 37 Oeste 0 929.7 -2.3 30
2017-11-12 13:00:00 17 20 Oeste 32 Noroeste 0 930.2 -2.3 34
2017-11-12 12:00:00 11.7 6 Norte 12 Norte 0 931.4 -1.4 56
2017-11-12 11:00:00 7.7 7 Norte 11 Norte 0 932 -0.5 69
2017-11-12 10:00:00 4 2 Norte 5 Sudeste 0 932.5 0.2 91
2017-11-12 09:00:00 0.7 2 Sudeste 6 Sur 0 932.8 0.2 96
2017-11-12 08:00:00 -1.2 5 Sur 7 Sudeste 0 932.5 0 94
2017-11-12 07:00:00 -0.4 2 Oeste 8 Sur 0 932.3 -0.2 94
2017-11-12 06:00:00 -0.1 0 Calma 9 Sur 0 932.6 -0.1 93
2017-11-12 05:00:00 0.3 3 Sudoeste 8 Sudoeste 0 932.5 -0.6 91
2017-11-12 04:00:00 1 5 Sudoeste 9 Sudeste 0 932.5 -1.1 92
2017-11-12 03:00:00 1.4 6 Sur 8 Sudeste 0 932.7 -1.4 88
2017-11-12 02:00:00 2.6 5 Sur 10 Sudeste 0 933.1 -1.2 83
2017-11-12 01:00:00 3.9 7 Sudeste 12 Sudeste 0 933.6 -0.8 81
2017-11-12 00:00:00 4.9 9 Sur 13 Sudeste 0 934.1 -0.2 76
2017-11-11 23:00:00 6 8 Sur 14 Sur 0 934.3 0.2 71
2017-11-11 22:00:00 5.7 8 Sudeste 10 Sudeste 0 934.4 0.5 74
2017-11-11 21:00:00 7.8 4 Este 10 Sudoeste 0 934.3 0.6 65
2017-11-11 20:00:00 11.2 5 Sur 23 Oeste 0 934.1 0.5 56
2017-11-11 19:00:00 12.4 15 Oeste 26 Oeste 0 933.9 0.3 53
2017-11-11 18:00:00 13.5 14 Oeste 29 Oeste 0 933.7 0 49
2017-11-11 17:00:00 15.2 21 Oeste 33 Oeste 0 933.6 -0.2 42
2017-11-11 16:00:00 15.6 22 Oeste 38 Oeste 0 933.6 -0.8 41
2017-11-11 15:00:00 15.6 25 Oeste 40 Oeste 0 933.7 -1.7 40
2017-11-11 14:00:00 15.8 22 Oeste 42 Oeste 0 933.8 -1.8 41
2017-11-11 13:00:00 14.7 22 Oeste 39 Oeste 0 934.4 -1.5 43
2017-11-11 12:00:00 13.6 23 Oeste 39 Oeste 0 935.4 -0.5 49
2017-11-11 11:00:00 11.5 19 Oeste 34 Oeste 0 935.6 0.2 59
2017-11-11 10:00:00 6.7 9 Norte 14 Nordeste 0 935.9 0.7 73
2017-11-11 09:00:00 3 6 Sur 14 Sudeste 0 935.9 0.4 94
2017-11-11 08:00:00 0.1 8 Sudeste 13 Sudeste 0 935.4 0.2 92
2017-11-11 07:00:00 0.2 7 Sudeste 10 Sudeste 0 935.2 -0.1 91
2017-11-11 06:00:00 0.3 7 Sur 12 Norte 0 935.5 -0.6 87
2017-11-11 05:00:00 1.7 8 Norte 13 Norte 0 935.2 -1.1 83
2017-11-11 04:00:00 3.1 4 Nordeste 13 Noroeste 0 935.3 -1.4 82
2017-11-11 03:00:00 3.2 6 Noroeste 17 Oeste 0 936.1 -0.7 85
2017-11-11 02:00:00 1.1 6 Sudeste 8 Sur 0 936.3 -0.3 85
2017-11-11 01:00:00 1.5 4 Sudeste 10 Sudeste 0 936.7 0.2 83
2017-11-11 00:00:00 1.9 5 Sudeste 11 Sudeste 0 936.8 0.6 79
2017-11-10 23:00:00 2.3 6 Este 9 Sudeste 0 936.6 0.5 75
2017-11-10 22:00:00 3.3 6 Sudeste 13 Sudeste 0 936.5 0.6 74
2017-11-10 21:00:00 4.5 8 Sudeste 11 Sudeste 0 936.2 0.8 67
2017-11-10 20:00:00 6.2 4 Sudeste 8 Sudeste 0 936.1 0.8 60
2017-11-10 19:00:00 8.4 4 Este 15 Oeste 0 935.9 0.7 49
2017-11-10 18:00:00 11 8 Oeste 26 Oeste 0 935.4 0.6 40
2017-11-10 17:00:00 12.5 17 Oeste 27 Oeste 0 935.3 0.3 36
2017-11-10 16:00:00 12.4 19 Oeste 31 Oeste 0 935.2 -0.4 38
2017-11-10 15:00:00 12.7 18 Oeste 28 Oeste 0 934.8 -1 35
2017-11-10 14:00:00 12.1 17 Oeste 28 Oeste 0 935 -0.9 38
2017-11-10 13:00:00 10.8 13 Noroeste 23 Noroeste 0 935.6 -0.2 42
2017-11-10 12:00:00 9.4 5 Noroeste 14 Nordeste 0 935.8 0.8 49
2017-11-10 11:00:00 6.7 6 Norte 22 Norte 0 935.9 1 56
2017-11-10 10:00:00 5 13 Norte 23 Noroeste 0 935.8 1.4 63
2017-11-10 09:00:00 4.6 15 Noroeste 30 Oeste 0 935 0.9 63
2017-11-10 08:00:00 3.8 16 Oeste 27 Oeste 0 934.9 1.1 65
2017-11-10 07:00:00 3.7 11 Noroeste 24 Oeste 0 934.4 0.7 67
2017-11-10 06:00:00 4.2 10 Noroeste 26 Oeste 0 934.1 0.4 65
2017-11-10 05:00:00 4.1 10 Noroeste 25 Noroeste 0 933.8 -0.1 66
2017-11-10 04:00:00 5.1 12 Noroeste 27 Oeste 0 933.7 -0.3 62
2017-11-10 03:00:00 1.6 6 Sudoeste 13 Sur 0 933.7 -0.4 80
2017-11-10 02:00:00 0.8 7 Sudeste 13 Sudeste 0 933.9 -0.1 76
2017-11-10 01:00:00 2 7 Sudeste 12 Sudeste 0 934 0.4 75
2017-11-10 00:00:00 4.6 4 Sur 19 Oeste 0 934.1 1.3 63
2017-11-09 23:00:00 5.9 6 Noroeste 18 Oeste 0 934 1.6 57
2017-11-09 22:00:00 7.4 14 Oeste 25 Oeste 0 933.6 1.8 52
2017-11-09 21:00:00 8.3 13 Oeste 19 Oeste 0 932.8 1.4 48
2017-11-09 20:00:00 9 13 Oeste 25 Oeste 0 932.4 1.2 44
2017-11-09 19:00:00 9.6 14 Oeste 22 Oeste 0 931.8 0.8 42
2017-11-09 18:00:00 10.8 12 Oeste 23 Oeste 0 931.4 0.3 37
2017-11-09 17:00:00 12.8 17 Oeste 27 Oeste 0 931.2 -0.4 32
2017-11-09 16:00:00 13.6 15 Oeste 23 Oeste 0 931 -1 31
2017-11-09 15:00:00 13.9 12 Oeste 21 Noroeste 0 931.1 -1.5 28
2017-11-09 14:00:00 13.6 9 Noroeste 19 Norte 0 931.6 -1 26
2017-11-09 13:00:00 12.6 10 Noroeste 17 Noroeste 0 932 -0.6 26
2017-11-09 12:00:00 10.8 9 Noroeste 14 Noroeste 0 932.6 0.4 43
2017-11-09 11:00:00 8 5 Norte 15 Norte 0 932.6 0.9 56
2017-11-09 10:00:00 6.1 9 Norte 17 Norte 0 932.6 1.7 64
2017-11-09 09:00:00 2.8 4 Noroeste 11 Norte 0 932.2 1.1 81
2017-11-09 08:00:00 0.4 3 Sudeste 11 Este 0 931.7 1 84
2017-11-09 07:00:00 1.6 6 Sudeste 13 Sudoeste 0 930.9 0 83
2017-11-09 06:00:00 3.1 6 Sudeste 10 Sudeste 0 931.1 0.6 76
2017-11-09 05:00:00 6.1 7 Oeste 17 Norte 0 930.7 0.2 62
2017-11-09 04:00:00 6.4 8 Noroeste 17 Oeste 0 930.9 0.1 65
2017-11-09 03:00:00 5.7 3 Sudoeste 9 Nordeste 0 930.5 -0.2 74
2017-11-09 02:00:00 5.7 6 Sudeste 8 Sudeste 0 930.5 -0.3 75
2017-11-09 01:00:00 6.3 0 Calma 18 Noroeste 0 930.8 0.5 70
2017-11-09 00:00:00 7.6 4 Nordeste 15 Oeste 0 930.7 0.7 62
2017-11-08 23:00:00 9.5 10 Oeste 18 Oeste 0 930.8 1.1 57
2017-11-08 22:00:00 10.2 12 Oeste 26 Noroeste 0 930.3 1.1 54
2017-11-08 21:00:00 9.9 5 Oeste 16 Oeste 0 930 1 55
2017-11-08 20:00:00 10.7 8 Sudoeste 14 Sudoeste 0 929.7 0.9 49
2017-11-08 19:00:00 12 9 Oeste 21 Oeste 0 929.2 0.6 45
2017-11-08 18:00:00 14.4 17 Oeste 27 Oeste 0 929 -0.1 35
2017-11-08 17:00:00 16.8 16 Oeste 30 Oeste 0 928.8 -0.7 30
2017-11-08 16:00:00 17.4 15 Oeste 26 Oeste 0 928.6 -1.7 30
2017-11-08 15:00:00 17.2 15 Oeste 26 Oeste 0 929.1 -2.3 29
2017-11-08 14:00:00 16.3 14 Noroeste 24 Noroeste 0 929.5 -2.2 30
2017-11-08 13:00:00 14.1 3 Norte 9 Noroeste 0 930.3 -1.6 38
2017-11-08 12:00:00 10.8 4 Norte 9 Noroeste 0 931.4 -0.1 45
2017-11-08 11:00:00 6.5 2 Oeste 9 Oeste 0 931.7 0.2 61
2017-11-08 10:00:00 2.9 5 Noroeste 12 Norte 0 931.9 1 76
2017-11-08 09:00:00 -0.4 2 Este 5 Sudeste 0 931.5 1.1 93
2017-11-08 08:00:00 -2.2 0 Calma 8 Sur 0 931.5 1.1 92
2017-11-08 07:00:00 -2 4 Sur 9 Sudeste 0 930.9 0.4 87
2017-11-08 06:00:00 -1.3 6 Sudeste 10 Sur 0 930.4 -0.1 90
2017-11-08 05:00:00 -1.3 4 Sur 9 Sur 0 930.4 0 90
2017-11-08 04:00:00 -0.8 4 Sur 9 Sur 0 930.5 0 86
2017-11-08 03:00:00 0.3 0 Calma 8 Sur 0 930.5 -0.1 77
2017-11-08 02:00:00 1 5 Sudeste 9 Sur 0 930.4 0 76
2017-11-08 01:00:00 1.5 6 Sur 10 Sudeste 0 930.5 0.4 75
2017-11-08 00:00:00 3.2 3 Este 10 Sur 0 930.6 0.9 64
2017-11-07 23:00:00 5.3 9 Sur 14 Sudeste 0 930.4 1.1 48
2017-11-07 22:00:00 6.3 10 Sudeste 15 Sudeste 0 930.1 1.4 45
2017-11-07 21:00:00 10.2 9 Sudeste 24 Oeste 0 929.7 1.5 37
2017-11-07 20:00:00 11.7 14 Oeste 27 Oeste 0 929.3 1.3 32
2017-11-07 19:00:00 12.3 17 Oeste 32 Oeste 0 928.7 1 35
2017-11-07 18:00:00 13.7 16 Oeste 30 Oeste 0 928.2 0.7 34
2017-11-07 17:00:00 16.5 18 Oeste 36 Oeste 0 928 0.4 18
2017-11-07 16:00:00 17 24 Oeste 42 Oeste 0 927.7 -0.3 15
2017-11-07 15:00:00 17.2 19 Oeste 36 Oeste 0 927.5 -1.3 14
2017-11-07 14:00:00 16.2 23 Noroeste 37 Noroeste 0 927.6 -1.3 20
2017-11-07 13:00:00 15.4 20 Oeste 33 Oeste 0 928 -1.2 27
2017-11-07 12:00:00 12.9 14 Noroeste 21 Noroeste 0 928.8 -0.4 33
2017-11-07 11:00:00 8.4 7 Norte 11 Norte 0 928.9 0.4 59
2017-11-07 10:00:00 4.9 2 Noroeste 6 Sudoeste 0 929.2 1.1 67
2017-11-07 09:00:00 2.3 3 Sur 10 Sur 0 929.2 1.1 76
2017-11-07 08:00:00 0.3 6 Sur 11 Sur 0 928.5 0.5 82
2017-11-07 07:00:00 0.5 7 Sur 12 Sur 0 928.1 0.2 85
2017-11-07 06:00:00 0.8 3 Sudeste 8 Sudeste 0 928.1 -0.2 87
2017-11-07 05:00:00 0.9 3 Nordeste 10 Este 0 928 -0.6 84
2017-11-07 04:00:00 2.3 3 Norte 13 Sur 0 927.9 -1 77
2017-11-07 03:00:00 2.1 8 Sudeste 12 Sudeste 0 928.3 -0.5 80
2017-11-07 02:00:00 3.7 3 Nordeste 9 Sur 0 928.6 -0.4 75
2017-11-07 01:00:00 6 4 Nordeste 12 Oeste 0 928.9 0.1 65
2017-11-07 00:00:00 7.7 8 Oeste 17 Noroeste 0 928.8 0.1 57
2017-11-06 23:00:00 8.3 10 Oeste 22 Oeste 0 929 0.5 56
2017-11-06 22:00:00 9.2 12 Oeste 23 Oeste 0 928.8 0.3 53
2017-11-06 21:00:00 10 15 Oeste 30 Oeste 0 928.7 0.6 50
2017-11-06 20:00:00 10.4 19 Oeste 29 Oeste 0 928.5 0.1 49
2017-11-06 19:00:00 10.8 15 Oeste 32 Oeste 0 928.5 -0.3 49
2017-11-06 18:00:00 12 19 Oeste 31 Oeste 0 928.1 -0.9 46
2017-11-06 17:00:00 14 20 Oeste 32 Oeste 0 928.4 -1.4 40
2017-11-06 16:00:00 14.5 20 Oeste 32 Oeste 0 928.8 -1.7 38
2017-11-06 15:00:00 14.5 22 Oeste 33 Oeste 0 929 -2.6 38
2017-11-06 14:00:00 14.2 18 Oeste 33 Noroeste 0 929.8 -2.4 40
2017-11-06 13:00:00 13.4 21 Oeste 36 Oeste 0 930.5 -2 41
2017-11-06 12:00:00 12.4 20 Noroeste 33 Oeste 0 931.6 -0.6 46
2017-11-06 11:00:00 9.7 7 Noroeste 20 Oeste 0 932.2 0.3 61
2017-11-06 10:00:00 5.5 5 Norte 14 Norte 0 932.5 0.7 91
2017-11-06 09:00:00 3.6 5 Este 10 Sudeste 0 932.2 0.4 96
2017-11-06 08:00:00 2.4 4 Nordeste 14 Nordeste 0 931.9 0.4 95
2017-11-06 07:00:00 2.6 8 Sudeste 12 Sur 0 931.8 0.1 95
2017-11-06 06:00:00 3.1 2 Sudeste 8 Sur 0 931.8 -0.1 94
2017-11-06 05:00:00 3.7 6 Sudeste 10 Sur 0 931.5 -0.8 94
2017-11-06 04:00:00 4.2 7 Sudeste 9 Sudeste 0 931.7 -0.6 93
2017-11-06 03:00:00 5.3 5 Sur 7 Sudoeste 0 931.9 -0.4 91
2017-11-06 02:00:00 -- -- -- -- -- -- -- -- --
2017-11-06 01:00:00 -- -- -- -- -- -- -- -- --
2017-11-06 00:00:00 -- -- -- -- -- -- -- -- --
2017-11-05 23:00:00 -- -- -- -- -- -- -- -- --
2017-11-05 22:00:00 -- -- -- -- -- -- -- -- --
2017-11-05 21:00:00 -- -- -- -- -- -- -- -- --
2017-11-05 20:00:00 -- -- -- -- -- -- -- -- --
2017-11-05 19:00:00 -- -- -- -- -- -- -- -- --
2017-11-05 18:00:00 -- -- -- -- -- -- -- -- --
2017-11-05 17:00:00 -- -- -- -- -- -- -- -- --
2017-11-05 16:00:00 -- -- -- -- -- -- -- -- --
2017-11-05 15:00:00 -- -- -- -- -- -- -- -- --
2017-11-05 14:00:00 -- -- -- -- -- -- -- -- --
2017-11-05 13:00:00 -- -- -- -- -- -- -- -- --
2017-11-05 12:00:00 -- -- -- -- -- -- -- -- --
2017-11-05 11:00:00 -- -- -- -- -- -- -- -- --
2017-11-05 10:00:00 -- -- -- -- -- -- -- -- --
2017-11-05 09:00:00 -- -- -- -- -- -- -- -- --
2017-11-05 08:00:00 -- -- -- -- -- -- -- -- --
2017-11-05 07:00:00 -- -- -- -- -- -- -- -- --
2017-11-05 06:00:00 -- -- -- -- -- -- -- -- --
2017-11-05 05:00:00 -- -- -- -- -- -- -- -- --
2017-11-05 04:00:00 -- -- -- -- -- -- -- -- --
2017-11-05 03:00:00 -- -- -- -- -- -- -- -- --
2017-11-05 02:00:00 -- -- -- -- -- -- -- -- --
2017-11-05 01:00:00 -- -- -- -- -- -- -- -- --
2017-11-05 00:00:00 -- -- -- -- -- -- -- -- --
2017-11-04 23:00:00 -- -- -- -- -- -- -- -- --
2017-11-04 22:00:00 -- -- -- -- -- -- -- -- --
2017-11-04 21:00:00 -- -- -- -- -- -- -- -- --
2017-11-04 20:00:00 -- -- -- -- -- -- -- -- --
2017-11-04 19:00:00 -- -- -- -- -- -- -- -- --
2017-11-04 18:00:00 -- -- -- -- -- -- -- -- --
2017-11-04 17:00:00 -- -- -- -- -- -- -- -- --
2017-11-04 16:00:00 -- -- -- -- -- -- -- -- --
2017-11-04 15:00:00 -- -- -- -- -- -- -- -- --
2017-11-04 14:00:00 -- -- -- -- -- -- -- -- --
2017-11-04 13:00:00 -- -- -- -- -- -- -- -- --
2017-11-04 12:00:00 -- -- -- -- -- -- -- -- --
2017-11-04 11:00:00 -- -- -- -- -- -- -- -- --
2017-11-04 10:00:00 -- -- -- -- -- -- -- -- --
2017-11-04 09:00:00 -- -- -- -- -- -- -- -- --
2017-11-04 08:00:00 -- -- -- -- -- -- -- -- --
2017-11-04 07:00:00 7.3 6 Sudeste 11 Sudeste 0 923.7 0 95
2017-11-04 06:00:00 8.1 3 Sur 8 Sudeste 0 923.7 -0.8 94
2017-11-04 05:00:00 8.9 3 Este 12 Noroeste 0 923.5 -1.4 93
2017-11-04 04:00:00 10.5 6 Oeste 14 Sur 0 923.7 -1.9 93
2017-11-04 03:00:00 10.9 3 Sur 15 Noroeste 0 924.5 -1.3 91
2017-11-04 02:00:00 11.7 5 Noroeste 13 Este 0.4 924.9 -0.4 91
2017-11-04 01:00:00 12.4 9 Sudeste 21 Noroeste 0.2 925.6 1.1 84
2017-11-04 00:00:00 14.4 10 Oeste 29 Oeste 0 925.8 1.4 65
2017-11-03 23:00:00 14.4 19 Oeste 30 Oeste 0 925.3 0.9 70
2017-11-03 22:00:00 14.4 6 Sudoeste 12 Sudeste 0 924.5 0.3 89
2017-11-03 21:00:00 15.1 8 Sudeste 19 Sur 0 924.4 0.8 86
2017-11-03 20:00:00 15.5 10 Sur 16 Sudeste 0 924.4 0.9 80
2017-11-03 19:00:00 17 6 Sudoeste 19 Sudoeste 0 924.2 0.6 55
2017-11-03 18:00:00 18.4 11 Oeste 17 Oeste 0 923.6 -0.3 48
2017-11-03 17:00:00 20 0 Calma 8 Noroeste 0 923.5 -0.8 49
2017-11-03 16:00:00 21 5 Noroeste 8 Noroeste 0 923.6 -1.6 32
2017-11-03 15:00:00 21.4 5 Noroeste 12 Norte 0 923.9 -2.3 32
2017-11-03 14:00:00 20.3 5 Nordeste 11 Norte 0 924.3 -2.3 38
2017-11-03 13:00:00 18.1 4 Norte 8 Norte 0 925.2 -1.3 45
2017-11-03 12:00:00 15.8 4 Este 10 Este 0 926.2 0.1 68
2017-11-03 11:00:00 12.2 4 Norte 8 Norte 0 926.6 0.9 86
2017-11-03 10:00:00 9.9 4 Noroeste 7 Noroeste 0 926.5 0.8 96
2017-11-03 09:00:00 8.5 3 Sudoeste 10 Sudeste 0 926.1 0.6 96
2017-11-03 08:00:00 7.7 6 Sur 9 Sudoeste 0 925.7 0 96
2017-11-03 07:00:00 8.2 3 Norte 7 Oeste 0 925.7 -0.3 96
2017-11-03 06:00:00 8.1 3 Sudoeste 9 Norte 0 925.5 -1.2 96
2017-11-03 05:00:00 8.6 4 Noroeste 10 Noroeste 0 925.7 -1.2 95
2017-11-03 04:00:00 9 6 Sudeste 12 Sur 0 926 -1.2 96
2017-11-03 03:00:00 9.2 8 Sudeste 10 Sudeste 0 926.7 -0.9 94
2017-11-03 02:00:00 10.6 5 Este 17 Sudeste 0 926.9 -1.1 95
2017-11-03 01:00:00 11.3 6 Sudeste 12 Sudeste 0 927.2 -1 95
2017-11-03 00:00:00 11.3 9 Sudeste 14 Sudeste 0 927.6 -0.4 94
2017-11-02 23:00:00 11.8 8 Sudeste 13 Sudeste 0 928 0.3 92
2017-11-02 22:00:00 12.7 10 Sudeste 15 Sudeste 0 928.2 0.8 88
2017-11-02 21:00:00 13.6 6 Sudeste 17 Sudeste 0 928 0.9 82
2017-11-02 20:00:00 14.5 10 Sudeste 19 Sudeste 0 927.7 0.5 76
2017-11-02 19:00:00 15.9 12 Sudeste 29 Sur 0 927.4 0.2 68
2017-11-02 18:00:00 18 13 Sudeste 25 Sudeste 0 927.1 -0.1 59
2017-11-02 17:00:00 20.7 14 Sur 25 Sudeste 0 927.2 -0.4 48
2017-11-02 16:00:00 21.4 12 Sur 19 Sur 0 927.2 -1.3 47
2017-11-02 15:00:00 21.7 4 Este 13 Noroeste 0 927.2 -2.6 46
2017-11-02 14:00:00 20.6 5 Noroeste 10 Noroeste 0 927.6 -2.7 48
2017-11-02 13:00:00 18.6 3 Nordeste 9 Nordeste 0 928.5 -1.9 56
2017-11-02 12:00:00 16.6 5 Norte 10 Nordeste 0 929.8 -0.5 65
2017-11-02 11:00:00 12.9 4 Norte 10 Norte 0 930.3 0.2 80
2017-11-02 10:00:00 10.8 7 Noroeste 11 Noroeste 0 930.4 0.3 90
2017-11-02 09:00:00 9.3 0 Calma 8 Este 0 930.3 0.4 96
2017-11-02 08:00:00 6.8 5 Sudeste 9 Sudeste 0 930.1 0.1 96
2017-11-02 07:00:00 6.6 7 Este 9 Este 0 930.1 0.1 95
2017-11-02 06:00:00 6.6 6 Sudeste 8 Sudeste 0 929.9 -0.5 94
2017-11-02 05:00:00 7.4 5 Sudeste 7 Nordeste 0 930 -0.7 93
2017-11-02 04:00:00 8.2 7 Sudeste 9 Sur 0 930 -0.9 92
2017-11-02 03:00:00 9.4 4 Sudeste 13 Este 0 930.4 -0.9 92
2017-11-02 02:00:00 10.4 6 Sudeste 16 Sudeste 0 930.7 -0.7 89
2017-11-02 01:00:00 11.5 7 Sudeste 14 Sudeste 0 930.9 -0.5 92
2017-11-02 00:00:00 12.3 12 Sudeste 19 Sudeste 0 931.3 0.2 91
2017-11-01 23:00:00 12.5 9 Sudeste 18 Sudeste 0 931.4 0.5 88
2017-11-01 22:00:00 13.4 12 Sudeste 22 Sudeste 0 931.4 0.9 85
2017-11-01 21:00:00 13.8 10 Sudeste 20 Sudeste 0 931.1 1.4 87
2017-11-01 20:00:00 14.3 12 Sudeste 23 Sudeste 0 930.9 1.6 84
2017-11-01 19:00:00 15.6 9 Sur 18 Sudeste 0 930.5 1.1 74
2017-11-01 18:00:00 18.2 11 Sudeste 26 Sudeste 0 929.7 0 61
2017-11-01 17:00:00 21.3 14 Sudeste 29 Sudeste 0 929.3 -1 48
2017-11-01 16:00:00 22.1 14 Sudeste 28 Sudeste 0 929.4 -1.7 45
2017-11-01 15:00:00 22.3 17 Sudeste 32 Sudeste 0 929.7 -2.4 44
2017-11-01 14:00:00 21.9 17 Sudeste 29 Sudeste 0 930.3 -2.4 45
2017-11-01 13:00:00 20.9 13 Sudeste 22 Sudeste 0 931.1 -1.6 48
2017-11-01 12:00:00 17.2 5 Nordeste 14 Este 0 932.1 -0.4 64
2017-11-01 11:00:00 15.1 5 Nordeste 10 Nordeste 0 932.7 0.6 71
2017-11-01 10:00:00 12.2 3 Norte 8 Norte 0 932.7 1.1 90
2017-11-01 09:00:00 10.2 2 Norte 6 Nordeste 0 932.5 1 95
2017-11-01 08:00:00 9.1 0 Calma 6 Este 0 932.1 0.5 96
2017-11-01 07:00:00 8.7 3 Nordeste 6 Este 0 931.6 -0.1 95
2017-11-01 06:00:00 8.5 4 Sudeste 7 Sudeste 0 931.5 -0.2 95
2017-11-01 05:00:00 8.6 3 Sur 8 Sur 0 931.6 -0.1 95
2017-11-01 04:00:00 9.8 3 Nordeste 7 Este 0 931.7 -0.2 96
2017-11-01 03:00:00 9.2 5 Este 9 Este 0 931.7 -0.4 95
2017-11-01 02:00:00 9.9 9 Sudeste 12 Sudeste 0 931.7 -0.3 95
2017-11-01 01:00:00 10.2 7 Sudeste 10 Sudeste 0 931.9 0.2 94
2017-11-01 00:00:00 11 8 Sudeste 10 Sudeste 0 932.1 0.8 93
2017-10-31 23:00:00 12.1 6 Sudeste 14 Sur 0 932 1.4 90
2017-10-31 22:00:00 13.2 8 Sudeste 19 Sudeste 0 931.7 1.6 87
2017-10-31 21:00:00 13.8 12 Sudeste 23 Sur 0 931.3 1.7 85
2017-10-31 20:00:00 14.5 14 Sur 24 Sur 0 930.6 1.4 81
2017-10-31 19:00:00 15.8 11 Sur 24 Sudeste 0 930.1 1.1 67
2017-10-31 18:00:00 18.7 13 Sudeste 23 Sudeste 0 929.6 0.6 50
2017-10-31 17:00:00 21.2 13 Sudeste 22 Sudeste 0 929.2 -0.2 40
2017-10-31 16:00:00 22.3 12 Sudeste 23 Sudeste 0 929 -0.9 35
2017-10-31 15:00:00 22.9 13 Sudeste 24 Sudeste 0 929 -1.7 31
2017-10-31 14:00:00 22.4 11 Sudeste 27 Sudeste 0 929.4 -1.7 31
2017-10-31 13:00:00 20.5 14 Sudeste 27 Sudeste 0 929.9 -1.1 37
2017-10-31 12:00:00 18.5 4 Nordeste 15 Sudeste 0 930.7 0.3 53
2017-10-31 11:00:00 15.3 7 Norte 14 Norte 0 931.1 1.7 69
2017-10-31 10:00:00 12.2 4 Norte 10 Norte 0 931 2.1 85
2017-10-31 09:00:00 10.4 6 Norte 17 Sudeste 0 930.4 1.7 91
2017-10-31 08:00:00 8.8 4 Nordeste 11 Sudeste 0 929.4 0.9 93
2017-10-31 07:00:00 9.5 5 Este 8 Sudeste 0 928.9 0.7 92
2017-10-31 06:00:00 10.4 5 Sur 7 Sur 0 928.7 0.4 92
2017-10-31 05:00:00 10.5 2 Noroeste 8 Norte 0 928.5 0.1 89
2017-10-31 04:00:00 11.6 6 Sur 10 Sudeste 0 928.2 -0.3 81
2017-10-31 03:00:00 12.1 5 Sur 7 Sur 0 928.3 -0.3 85
2017-10-31 02:00:00 11.9 0 Calma 6 Norte 0 928.4 -0.3 86
2017-10-31 01:00:00 11.4 4 Sur 8 Sudoeste 0 928.5 0.4 83
2017-10-31 00:00:00 11.3 4 Sudoeste 8 Sudoeste 0 928.6 1.1 82
2017-10-30 23:00:00 11.9 0 Calma 11 Sur 0 928.7 1.8 92
2017-10-30 22:00:00 12.9 8 Sur 20 Sudeste 0 928.1 1.6 89
2017-10-30 21:00:00 13.6 8 Sudeste 21 Sudeste 0 927.5 1.8 86
2017-10-30 20:00:00 14.6 13 Sudeste 29 Sudeste 0 926.9 1.9 82
2017-10-30 19:00:00 16.1 13 Sur 26 Sur 0 926.5 1.5 74
2017-10-30 18:00:00 19.9 13 Sudeste 23 Sudeste 0 925.7 0.4 56
2017-10-30 17:00:00 23.8 13 Sudeste 19 Sudeste 0 925 -0.8 39
2017-10-30 16:00:00 24.2 4 Noroeste 10 Este 0 925 -1.6 24
2017-10-30 15:00:00 23.5 4 Oeste 12 Oeste 0 925.3 -2 28
2017-10-30 14:00:00 21.8 5 Noroeste 10 Oeste 0 925.8 -1.8 33
2017-10-30 13:00:00 19 5 Norte 15 Norte 0 926.6 -1.3 50
2017-10-30 12:00:00 15.8 9 Norte 16 Norte 0 927.3 -0.7 68
2017-10-30 11:00:00 12.4 4 Noroeste 10 Noroeste 0 927.6 0.1 82
2017-10-30 10:00:00 8.8 3 Sur 8 Noroeste 0 927.9 0.4 96
2017-10-30 09:00:00 7.2 5 Oeste 8 Oeste 0 928 0.7 95
2017-10-30 08:00:00 4.7 6 Sudeste 10 Sudeste 0 927.5 0.1 95
2017-10-30 07:00:00 4.8 4 Sur 5 Sur 0 927.5 -0.1 94
2017-10-30 06:00:00 5.4 0 Calma 5 Sudeste 0 927.3 -0.7 93
2017-10-30 05:00:00 6.1 2 Oeste 7 Sudeste 0 927.4 -0.7 94
2017-10-30 04:00:00 6.5 7 Sudeste 10 Sudeste 0 927.6 -0.8 94
2017-10-30 03:00:00 7 7 Sur 9 Sur 0 928 -0.8 92
2017-10-30 02:00:00 8.8 3 Sudoeste 9 Sudeste 0 928.1 -0.9 93
2017-10-30 01:00:00 9.6 6 Este 10 Sudeste 0 928.4 -0.7 93
2017-10-30 00:00:00 10.9 3 Este 8 Sur 0 928.8 -0.1 92
2017-10-29 23:00:00 12.2 6 Sur 13 Sur 0 929 0.1 92
2017-10-29 22:00:00 13.2 5 Sur 21 Sudeste 0 929.1 0.3 91
2017-10-29 21:00:00 13.9 11 Sudeste 22 Sudeste 0 928.9 0.5 88
2017-10-29 20:00:00 14.9 12 Sudeste 20 Sudeste 0 928.9 0.5 82
2017-10-29 19:00:00 16.7 10 Sur 21 Sudeste 0 928.8 0.2 74
2017-10-29 18:00:00 21.1 6 Oeste 19 Noroeste 0 928.4 -0.7 38
2017-10-29 17:00:00 23.1 12 Oeste 18 Oeste 0 928.4 -1.3 33
2017-10-29 16:00:00 23 14 Noroeste 20 Oeste 0 928.6 -1.9 28
2017-10-29 15:00:00 22.7 5 Norte 17 Noroeste 0 929.1 -2.7 37
2017-10-29 14:00:00 21.5 6 Noroeste 14 Norte 0 929.7 -2.9 44
2017-10-29 13:00:00 19.7 6 Norte 10 Norte 0 930.5 -1.9 51
2017-10-29 12:00:00 16.6 5 Sudeste 12 Sudeste 0 931.8 -0.8 68
2017-10-29 11:00:00 12.5 5 Norte 17 Norte 0 932.6 0 88
2017-10-29 10:00:00 10.6 4 Norte 10 Norte 0 932.4 0 94
2017-10-29 09:00:00 7.6 4 Sur 6 Sur 0 932.6 0.4 96
2017-10-29 08:00:00 5.8 3 Sudeste 5 Sur 0 932.6 0.3 94
2017-10-29 07:00:00 6.3 2 Sur 7 Sudeste 0 932.4 0 94
2017-10-29 06:00:00 6.7 6 Sudeste 9 Sudeste 0 932.2 -0.4 94
2017-10-29 05:00:00 7.2 6 Sur 10 Sur 0 932.3 -0.7 93
2017-10-29 04:00:00 8.3 3 Este 8 Sur 0 932.4 -0.8 94
2017-10-29 03:00:00 8.6 5 Sudeste 11 Sudeste 0 932.6 -0.9 93
2017-10-29 02:00:00 9 8 Sudeste 10 Este 0 933 -0.8 92
2017-10-29 01:00:00 11.3 8 Sur 11 Sudeste 0 933.5 -0.4 92
2017-10-29 00:00:00 12.7 5 Sudeste 17 Sur 0 933.8 0.6 86
2017-10-28 23:00:00 13.6 8 Sur 18 Sur 0 933.7 1 82
2017-10-28 22:00:00 14.4 10 Sur 20 Sur 0 933.9 1.7 71
2017-10-28 21:00:00 15.5 12 Sur 24 Sudeste 0 933.2 1.3 72
2017-10-28 20:00:00 17.1 14 Sudeste 24 Sudeste 0 932.7 1 69
2017-10-28 19:00:00 20.4 14 Sudeste 28 Sudeste 0 932.2 0.1 51
2017-10-28 18:00:00 23.9 14 Sudeste 26 Sudeste 0 931.9 -0.7 37
2017-10-28 17:00:00 25 12 Sudeste 21 Sudeste 0 931.7 -1.8 32
2017-10-28 16:00:00 24.9 12 Sudeste 24 Sudeste 0 932.1 -2.2 32
2017-10-28 15:00:00 23.7 14 Sudeste 27 Sudeste 0 932.6 -1.7 33
2017-10-28 14:00:00 23 13 Sur 24 Sur 0 933.5 -1.3 34
2017-10-28 13:00:00 20.4 7 Nordeste 22 Sudeste 0 934.3 -0.3 36
2017-10-28 12:00:00 18.5 12 Sudeste 20 Sudeste 0 934.3 0 48
2017-10-28 11:00:00 12.8 3 Oeste 7 Norte 0 934.8 1.2 56
2017-10-28 10:00:00 7.7 2 Sudeste 9 Oeste 0 934.6 0.9 73
2017-10-28 09:00:00 5.9 6 Oeste 11 Sudeste 0 934.3 0.6 76
2017-10-28 08:00:00 4.3 5 Sur 9 Sudoeste 0 933.6 -0.2 84
2017-10-28 07:00:00 4.7 3 Este 5 Este 0 933.7 -0.5 83
2017-10-28 06:00:00 5.6 2 Sur 8 Sur 0 933.7 -0.9 79
2017-10-28 05:00:00 6.2 8 Sur 12 Sudeste 0 933.8 -1 76
2017-10-28 04:00:00 7 6 Sur 8 Oeste 0 934.2 -0.9 71
2017-10-28 03:00:00 8.1 5 Sudoeste 11 Sudeste 0 934.6 -0.8 65
2017-10-28 02:00:00 8.8 7 Sur 8 Sur 0 934.8 -0.5 63
2017-10-28 01:00:00 9.9 2 Sur 6 Sur 0 935.1 -0.1 56
2017-10-28 00:00:00 11.2 5 Sur 11 Sudeste 0 935.4 0.2 46
2017-10-27 23:00:00 12.2 8 Sudeste 14 Sudeste 0 935.3 0.5 45
2017-10-27 22:00:00 13.6 11 Sudeste 14 Sudeste 0 935.2 0.6 42
2017-10-27 21:00:00 16.1 11 Sudeste 15 Sur 0 935.2 0.5 35
2017-10-27 20:00:00 19.7 9 Sur 15 Sur 0 934.8 0.1 27
2017-10-27 19:00:00 25.6 9 Oeste 18 Oeste 0 934.6 -0.4 17
2017-10-27 18:00:00 27.6 12 Oeste 18 Oeste 0 934.7 -1 14
2017-10-27 17:00:00 30.5 4 Sur 10 Sudoeste 0 934.7 -1.8 10
2017-10-27 16:00:00 28.4 5 Noroeste 10 Oeste 0 935 -2.5 12
2017-10-27 15:00:00 25.7 7 Norte 11 Noroeste 0 935.7 -2.4 16
2017-10-27 14:00:00 23 4 Noroeste 10 Norte 0 936.5 -1.8 21
2017-10-27 13:00:00 19.2 3 Norte 7 Norte 0 937.5 -0.5 30
2017-10-27 12:00:00 14.8 4 Norte 8 Noroeste 0 938.1 0.5 40
2017-10-27 11:00:00 10.6 4 Noroeste 8 Noroeste 0 938.3 0.9 52
2017-10-27 10:00:00 6.6 2 Noroeste 6 Sur 0 938 0.7 72
2017-10-27 09:00:00 3.4 4 Sur 6 Sudeste 0 937.6 0.4 84
2017-10-27 08:00:00 3.6 5 Sur 8 Sudeste 0 937.4 0.1 80
2017-10-27 07:00:00 4 5 Sudeste 10 Sur 0 937.3 0 83
2017-10-27 06:00:00 4.3 8 Sudeste 11 Sudeste 0 937.2 -0.5 83
2017-10-27 05:00:00 5.7 3 Sur 8 Sudeste 0 937.3 -0.8 73
2017-10-27 04:00:00 6 5 Sudeste 8 Sudeste 0 937.3 -1.1 73
2017-10-27 03:00:00 7.6 7 Sudeste 15 Sudeste 0 937.7 -0.8 62
2017-10-27 02:00:00 8.1 6 Sur 7 Sur 0 938.1 -0.2 73
2017-10-27 01:00:00 9.6 4 Este 9 Sur 0 938.4 0.4 69
2017-10-27 00:00:00 11.4 6 Sur 9 Sur 0 938.5 1 61
2017-10-26 23:00:00 13.5 8 Este 17 Sur 0 938.3 1.5 57
2017-10-26 22:00:00 15.3 11 Sur 21 Sudeste 0 938 1.8 48
2017-10-26 21:00:00 16.7 11 Sudeste 21 Sudeste 0 937.5 1.8 43
2017-10-26 20:00:00 19 13 Sur 23 Sur 0 936.8 1.4 32
2017-10-26 19:00:00 22.6 16 Sudeste 27 Sudeste 0 936.2 0.9 25
2017-10-26 18:00:00 25.7 18 Sudeste 28 Sudeste 0 935.7 0 16
2017-10-26 17:00:00 27.3 15 Sudeste 30 Sudeste 0 935.4 -0.9 13
2017-10-26 16:00:00 27.5 17 Sudeste 30 Sudeste 0 935.3 -1.8 14
2017-10-26 15:00:00 27.2 13 Sudeste 26 Sur 0 935.7 -1.7 18
2017-10-26 14:00:00 23.3 6 Norte 10 Norte 0 936.3 -1.3 30
2017-10-26 13:00:00 20 5 Norte 10 Norte 0 937.1 -0.5 40
2017-10-26 12:00:00 16 4 Norte 8 Noroeste 0 937.4 0.2 50
2017-10-26 11:00:00 10.9 3 Sur 6 Sudeste 0 937.6 0.7 64
2017-10-26 10:00:00 6.4 2 Sur 7 Sudeste 0 937.6 0.9 85
2017-10-26 09:00:00 3.8 5 Sudeste 7 Sudeste 0 937.2 1 93
2017-10-26 08:00:00 3.8 4 Sudeste 8 Sur 0 936.9 0.7 91
2017-10-26 07:00:00 4.7 5 Sur 6 Sudeste 0 936.7 0.3 87
2017-10-26 06:00:00 5.1 7 Sudeste 9 Sudeste 0 936.2 -0.4 87
2017-10-26 05:00:00 6.3 6 Sudeste 12 Sudeste 0 936.2 -0.5 84
2017-10-26 04:00:00 7.1 5 Sur 9 Sudeste 0 936.4 -0.5 86
2017-10-26 03:00:00 7.8 5 Sudeste 8 Sudeste 0 936.6 -0.3 84
2017-10-26 02:00:00 9 3 Sur 9 Sur 0 936.7 0.2 81
2017-10-26 01:00:00 10.7 6 Sur 12 Sur 0 936.9 0.8 76
2017-10-26 00:00:00 12.4 6 Sudeste 15 Este 0 936.9 1.4 73